Time;durP1;ratioP1;P1;durP2;ratioP2;P2;SDS_P1;SDS_P2;PMS_P1;PMS_P2;Temp;Humidity;BMP_temperature;BMP_pressure;BME280_temperature;BME280_humidity;BME280_pressure;Samples;Min_cycle;Max_cycle;Signal;HPM_P1;HPM_P2
2021/05/15 00:00:42;;;;;;;2.47;1.38;;;9.30;99.90;;;;;;5056561;28;20041;-74
2021/05/15 00:03:08;;;;;;;2.50;1.70;;;9.20;99.90;;;;;;5058099;28;20036;-75
2021/05/15 00:05:35;;;;;;;2.58;1.60;;;9.10;99.90;;;;;;5058033;28;20059;-75
2021/05/15 00:08:03;;;;;;;2.72;1.45;;;9.10;99.90;;;;;;5057301;28;20373;-75
2021/05/15 00:10:31;;;;;;;3.67;1.30;;;9.00;99.90;;;;;;5058053;28;20033;-75
2021/05/15 00:12:58;;;;;;;5.85;1.92;;;9.00;99.90;;;;;;5067504;28;20466;-75
2021/05/15 00:15:26;;;;;;;3.50;1.85;;;9.00;99.90;;;;;;5054810;28;20505;-75
2021/05/15 00:17:54;;;;;;;3.83;1.65;;;8.90;99.90;;;;;;5069906;28;20383;-75
2021/05/15 00:20:21;;;;;;;3.17;1.70;;;8.80;99.90;;;;;;5054923;28;20036;-75
2021/05/15 00:22:47;;;;;;;3.83;1.30;;;8.80;99.90;;;;;;5062010;28;20045;-75
2021/05/15 00:25:16;;;;;;;3.95;1.92;;;8.90;99.90;;;;;;5055108;28;20049;-75
2021/05/15 00:27:42;;;;;;;2.63;1.52;;;8.80;99.90;;;;;;5062216;28;20049;-75
2021/05/15 00:30:11;;;;;;;4.05;2.00;;;8.90;99.90;;;;;;5054666;28;20390;-75
2021/05/15 00:32:38;;;;;;;5.88;2.15;;;8.90;99.90;;;;;;5054361;28;20049;-75
2021/05/15 00:35:05;;;;;;;3.95;2.35;;;8.90;99.90;;;;;;5053413;28;20045;-75
2021/05/15 00:37:32;;;;;;;5.57;2.45;;;8.90;99.90;;;;;;5054474;28;20052;-74
2021/05/15 00:39:58;;;;;;;4.13;2.55;;;8.90;99.90;;;;;;5068368;28;20045;-75
2021/05/15 00:42:24;;;;;;;4.88;2.45;;;8.90;99.90;;;;;;5053989;28;20040;-75
2021/05/15 00:44:51;;;;;;;3.83;2.03;;;8.90;99.90;;;;;;5061437;28;20040;-76
2021/05/15 00:47:19;;;;;;;5.30;2.28;;;8.80;99.90;;;;;;5054764;28;20049;-76
2021/05/15 00:49:48;;;;;;;5.55;2.90;;;8.80;99.90;;;;;;5052126;28;20037;-75
2021/05/15 00:52:15;;;;;;;3.53;2.33;;;8.80;99.90;;;;;;5060655;28;20024;-75
2021/05/15 00:54:42;;;;;;;5.05;2.33;;;8.70;99.90;;;;;;5067420;28;20032;-75
2021/05/15 00:57:10;;;;;;;2.53;2.00;;;8.80;99.90;;;;;;5061615;28;20040;-75
2021/05/15 00:59:38;;;;;;;3.53;1.85;;;8.80;99.90;;;;;;5053997;28;20048;-75
2021/05/15 01:02:06;;;;;;;3.38;1.70;;;8.80;99.90;;;;;;5056483;28;20389;-73
2021/05/15 01:04:33;;;;;;;3.10;2.08;;;8.80;99.90;;;;;;5070702;28;20045;-75
2021/05/15 01:06:59;;;;;;;3.90;1.85;;;8.70;99.90;;;;;;5055525;28;20043;-75
2021/05/15 01:09:26;;;;;;;4.80;1.90;;;8.80;99.90;;;;;;5063896;28;20045;-75
2021/05/15 01:11:53;;;;;;;2.80;1.75;;;8.90;99.90;;;;;;5053094;28;20048;-73
2021/05/15 01:14:19;;;;;;;4.18;2.10;;;8.90;99.90;;;;;;5071506;28;20059;-73
2021/05/15 01:16:47;;;;;;;2.85;2.00;;;8.90;99.90;;;;;;5058330;28;20100;-73
2021/05/15 01:19:15;;;;;;;4.35;2.00;;;8.90;99.90;;;;;;5066829;28;20036;-74
2021/05/15 01:21:41;;;;;;;3.72;2.17;;;8.90;99.90;;;;;;5053680;28;20036;-74
2021/05/15 01:24:09;;;;;;;4.85;2.67;;;8.90;99.90;;;;;;5052844;28;20041;-74
2021/05/15 01:26:35;;;;;;;5.55;2.65;;;8.90;99.90;;;;;;5053336;28;20044;-75
2021/05/15 01:29:06;;;;;;;5.70;2.45;;;8.80;99.90;;;;;;5071618;28;20052;-74
2021/05/15 01:31:34;;;;;;;4.35;2.42;;;8.80;99.90;;;;;;5053193;28;20037;-75
2021/05/15 01:34:01;;;;;;;5.15;2.70;;;8.80;99.90;;;;;;5052583;28;20052;-74
2021/05/15 01:36:28;;;;;;;5.97;3.38;;;8.80;99.90;;;;;;5053409;28;20037;-75
2021/05/15 01:38:55;;;;;;;6.20;3.20;;;8.90;99.90;;;;;;5053049;28;20043;-74
2021/05/15 01:41:21;;;;;;;5.00;3.38;;;8.90;99.90;;;;;;5053572;28;20041;-74
2021/05/15 01:43:48;;;;;;;3.83;3.17;;;9.00;99.90;;;;;;5061064;28;20048;-74
2021/05/15 01:46:14;;;;;;;4.40;2.70;;;9.10;99.90;;;;;;5053318;28;20039;-75
2021/05/15 01:48:42;;;;;;;5.50;3.17;;;9.20;99.90;;;;;;5053239;28;20033;-75
2021/05/15 01:51:12;;;;;;;4.95;2.92;;;9.20;99.90;;;;;;5051444;28;20474;-74
2021/05/15 01:53:41;;;;;;;3.55;2.60;;;9.30;99.90;;;;;;5069078;28;20037;-75
2021/05/15 01:56:10;;;;;;;5.63;3.38;;;9.40;99.90;;;;;;5054639;28;20032;-73
2021/05/15 01:58:37;;;;;;;4.45;3.03;;;9.40;99.90;;;;;;5052901;28;20024;-73
2021/05/15 02:01:05;;;;;;;4.72;2.55;;;9.30;99.90;;;;;;5066965;28;20036;-75
2021/05/15 02:03:31;;;;;;;6.47;3.20;;;9.20;99.90;;;;;;5056213;28;20036;-75
2021/05/15 02:05:58;;;;;;;4.13;2.88;;;9.20;99.90;;;;;;5052376;28;20406;-74
2021/05/15 02:08:24;;;;;;;6.93;2.75;;;9.00;99.90;;;;;;5061182;28;20041;-75
2021/05/15 02:10:52;;;;;;;3.88;2.97;;;9.00;99.90;;;;;;5054530;28;20393;-74
2021/05/15 02:13:19;;;;;;;5.35;2.80;;;9.00;99.90;;;;;;5052845;28;20382;-74
2021/05/15 02:15:46;;;;;;;6.10;3.17;;;8.80;99.90;;;;;;5068283;28;20032;-74
2021/05/15 02:18:13;;;;;;;4.47;3.10;;;8.80;99.90;;;;;;5053298;28;20048;-74
2021/05/15 02:20:41;;;;;;;5.50;2.80;;;8.90;99.90;;;;;;5052295;28;20045;-74
2021/05/15 02:23:10;;;;;;;4.82;2.35;;;8.90;99.90;;;;;;5051988;28;20041;-74
2021/05/15 02:25:37;;;;;;;3.40;2.47;;;9.00;99.90;;;;;;5052553;28;20028;-74
2021/05/15 02:28:04;;;;;;;6.13;3.10;;;9.00;99.90;;;;;;5052028;28;20052;-75
2021/05/15 02:30:31;;;;;;;4.38;2.70;;;9.10;99.90;;;;;;5052384;28;20047;-74
2021/05/15 02:32:58;;;;;;;4.82;3.03;;;9.10;99.90;;;;;;5051930;28;20045;-74
2021/05/15 02:35:24;;;;;;;4.30;2.90;;;9.00;99.90;;;;;;5052846;28;20044;-74
2021/05/15 02:37:51;;;;;;;4.30;2.65;;;9.10;99.90;;;;;;5050982;28;20032;-74
2021/05/15 02:40:19;;;;;;;8.20;2.88;;;9.00;99.90;;;;;;5052188;28;20029;-74
2021/05/15 02:42:45;;;;;;;5.30;3.25;;;9.00;99.90;;;;;;5052331;28;20048;-74
2021/05/15 02:45:13;;;;;;;2.90;2.35;;;9.00;99.90;;;;;;5052117;28;20490;-74
2021/05/15 02:47:42;;;;;;;5.07;2.42;;;9.00;99.90;;;;;;5052032;28;20025;-74
2021/05/15 02:50:13;;;;;;;3.97;2.88;;;8.90;99.90;;;;;;5051841;28;20032;-74
2021/05/15 02:52:39;;;;;;;4.25;2.22;;;8.90;99.90;;;;;;5052225;28;20033;-74
2021/05/15 02:55:08;;;;;;;3.25;2.50;;;8.80;99.90;;;;;;5051580;28;20474;-74
2021/05/15 02:57:36;;;;;;;3.80;2.40;;;8.90;99.90;;;;;;5052850;28;20044;-74
2021/05/15 03:00:08;;;;;;;3.47;2.13;;;9.00;99.90;;;;;;5051608;28;20413;-74
2021/05/15 03:02:35;;;;;;;3.92;2.60;;;9.20;99.90;;;;;;5052093;28;20029;-74
2021/05/15 03:05:05;;;;;;;4.53;2.42;;;9.30;99.90;;;;;;5063002;28;20031;-74
2021/05/15 03:07:31;;;;;;;3.73;2.03;;;9.40;99.90;;;;;;5053889;28;20044;-74
2021/05/15 03:09:57;;;;;;;3.30;2.17;;;9.50;99.90;;;;;;5062856;28;20628;-74
2021/05/15 03:12:23;;;;;;;4.78;1.90;;;9.60;99.90;;;;;;5060466;28;20032;-74
2021/05/15 03:14:49;;;;;;;3.95;2.20;;;9.70;99.90;;;;;;5061585;28;20032;-74
2021/05/15 03:17:16;;;;;;;3.25;1.98;;;9.70;99.90;;;;;;5056646;28;20461;-74
2021/05/15 03:19:42;;;;;;;3.78;2.20;;;9.70;99.90;;;;;;5059825;28;20044;-74
2021/05/15 03:22:09;;;;;;;3.65;1.95;;;9.70;99.90;;;;;;5051661;28;20509;-74
2021/05/15 03:24:35;;;;;;;3.35;2.20;;;9.70;99.90;;;;;;5059227;28;20099;-74
2021/05/15 03:27:02;;;;;;;4.57;1.83;;;9.70;99.90;;;;;;5051125;28;20033;-74
2021/05/15 03:29:28;;;;;;;2.00;1.20;;;9.80;99.90;;;;;;5066370;28;20048;-74
2021/05/15 03:31:54;;;;;;;3.72;1.70;;;9.80;99.90;;;;;;5051290;28;20044;-74
2021/05/15 03:34:21;;;;;;;3.25;1.60;;;9.80;99.90;;;;;;5052029;28;20045;-74
2021/05/15 03:36:47;;;;;;;4.78;1.92;;;9.80;99.90;;;;;;5051650;28;20490;-73
2021/05/15 03:39:19;;;;;;;2.28;1.60;;;9.80;99.90;;;;;;5060625;28;20428;-74
2021/05/15 03:41:46;;;;;;;3.20;1.83;;;9.80;99.90;;;;;;5055573;28;20067;-74
2021/05/15 03:44:13;;;;;;;5.05;1.90;;;9.70;99.90;;;;;;5052244;28;20049;-73
2021/05/15 03:46:40;;;;;;;3.92;2.05;;;9.60;99.90;;;;;;5059302;28;20034;-74
2021/05/15 03:49:07;;;;;;;3.17;2.10;;;9.50;99.90;;;;;;5060574;28;20047;-73
2021/05/15 03:51:35;;;;;;;2.35;1.77;;;9.50;99.90;;;;;;5055540;28;20459;-74
2021/05/15 03:54:01;;;;;;;3.60;2.03;;;9.50;99.90;;;;;;5054902;28;20052;-74
2021/05/15 03:56:27;;;;;;;2.17;1.70;;;9.60;99.90;;;;;;5073000;28;20033;-74
2021/05/15 03:58:54;;;;;;;3.35;1.73;;;9.70;99.90;;;;;;5069579;28;20466;-74
2021/05/15 04:01:21;;;;;;;2.40;1.60;;;9.70;99.90;;;;;;5058191;28;20032;-74
2021/05/15 04:03:48;;;;;;;2.40;1.70;;;9.70;99.90;;;;;;5072469;28;20036;-73
2021/05/15 04:06:15;;;;;;;2.33;1.73;;;9.60;99.90;;;;;;5059004;28;20028;-74
2021/05/15 04:08:41;;;;;;;2.97;1.63;;;9.70;99.90;;;;;;5068061;28;20029;-74
2021/05/15 04:11:09;;;;;;;2.80;1.70;;;9.70;99.90;;;;;;5054425;28;20044;-74
2021/05/15 04:13:49;;;;;;;3.28;1.70;;;9.70;99.90;;;;;;5054499;28;20163;-73
2021/05/15 04:16:23;;;;;;;3.28;1.40;;;9.80;99.90;;;;;;5054985;28;20377;-74
2021/05/15 04:18:49;;;;;;;2.78;1.75;;;9.80;99.90;;;;;;5054437;28;20041;-74
2021/05/15 04:21:15;;;;;;;2.35;1.75;;;9.80;99.90;;;;;;5054224;28;20041;-74
2021/05/15 04:23:42;;;;;;;4.18;2.80;;;9.90;99.90;;;;;;5054642;28;20040;-74
2021/05/15 04:26:12;;;;;;;3.47;1.70;;;9.90;99.90;;;;;;5054423;28;20033;-75
2021/05/15 04:28:39;;;;;;;1.92;1.27;;;10.00;99.90;;;;;;5054700;28;20040;-74
2021/05/15 04:31:05;;;;;;;2.53;1.48;;;10.10;99.90;;;;;;5054902;28;20505;-74
2021/05/15 04:33:32;;;;;;;2.25;1.40;;;10.20;99.90;;;;;;5061719;28;20045;-75
2021/05/15 04:36:00;;;;;;;2.40;1.40;;;10.30;99.90;;;;;;5067857;28;20048;-74
2021/05/15 04:38:27;;;;;;;3.50;1.40;;;10.30;99.90;;;;;;5053946;28;20045;-75
2021/05/15 04:40:53;;;;;;;3.33;1.63;;;10.30;99.90;;;;;;5053952;28;20043;-74
2021/05/15 04:43:19;;;;;;;4.88;1.23;;;10.50;99.90;;;;;;5064370;28;20048;-75
2021/05/15 04:45:46;;;;;;;1.95;1.10;;;10.50;99.90;;;;;;5065595;28;20033;-74
2021/05/15 04:48:12;;;;;;;3.33;1.38;;;10.40;99.90;;;;;;5054446;28;20040;-74
2021/05/15 04:50:38;;;;;;;2.22;1.10;;;10.40;99.90;;;;;;5054240;28;20033;-74
2021/05/15 04:53:06;;;;;;;4.07;1.70;;;10.40;99.90;;;;;;5053844;28;20382;-76
2021/05/15 04:55:32;;;;;;;2.83;1.10;;;10.40;99.90;;;;;;5052728;28;20044;-75
2021/05/15 04:58:00;;;;;;;1.58;1.27;;;10.50;99.90;;;;;;5053818;28;20470;-75
2021/05/15 05:00:27;;;;;;;1.88;1.25;;;10.50;99.90;;;;;;5052119;28;20040;-75
2021/05/15 05:02:54;;;;;;;1.92;1.00;;;10.60;99.90;;;;;;5053664;28;20045;-75
2021/05/15 05:05:20;;;;;;;4.07;1.52;;;10.70;99.90;;;;;;5054132;28;20021;-75
2021/05/15 05:07:48;;;;;;;2.28;1.50;;;10.70;99.90;;;;;;5054040;28;20037;-75
2021/05/15 05:10:15;;;;;;;2.17;1.30;;;10.70;99.90;;;;;;5053983;28;20032;-75
2021/05/15 05:12:41;;;;;;;1.92;1.30;;;10.70;99.90;;;;;;5053489;28;20029;-75
2021/05/15 05:15:07;;;;;;;1.92;1.30;;;10.70;99.90;;;;;;5063328;28;20028;-75
2021/05/15 05:17:34;;;;;;;1.85;1.13;;;10.70;99.90;;;;;;5065475;28;20037;-74
2021/05/15 05:20:00;;;;;;;2.50;1.25;;;10.70;99.90;;;;;;5052987;28;20068;-74
2021/05/15 05:22:26;;;;;;;2.97;1.40;;;10.80;99.90;;;;;;5061648;28;20052;-74
2021/05/15 05:24:52;;;;;;;2.45;1.40;;;10.80;99.90;;;;;;5053334;28;20037;-76
2021/05/15 05:27:20;;;;;;;3.38;1.90;;;11.00;99.90;;;;;;5067598;28;20041;-75
2021/05/15 05:29:46;;;;;;;4.18;2.28;;;11.10;99.90;;;;;;5053587;28;20029;-75
2021/05/15 05:32:13;;;;;;;2.35;1.35;;;11.40;99.90;;;;;;5053183;28;20025;-75
2021/05/15 05:34:39;;;;;;;2.80;1.23;;;11.60;99.90;;;;;;5053023;28;20059;-74
2021/05/15 05:37:06;;;;;;;2.28;1.33;;;12.00;99.90;;;;;;5053072;28;20032;-77
2021/05/15 05:39:33;;;;;;;2.25;1.50;;;12.30;99.90;;;;;;5067596;28;20041;-77
2021/05/15 05:42:02;;;;;;;3.92;1.45;;;12.80;99.10;;;;;;5053146;28;20382;-77
2021/05/15 05:44:28;;;;;;;1.92;1.02;;;14.60;92.60;;;;;;5062398;28;20478;-76
2021/05/15 05:46:54;;;;;;;1.88;1.17;;;16.10;80.90;;;;;;5066567;28;20045;-73
2021/05/15 05:49:21;;;;;;;2.65;1.00;;;16.80;74.90;;;;;;5059231;28;20025;-75
2021/05/15 05:51:47;;;;;;;2.13;0.82;;;17.10;72.20;;;;;;5059554;28;20051;-75
2021/05/15 05:54:13;;;;;;;6.35;1.35;;;17.00;70.90;;;;;;5058412;28;20033;-75
2021/05/15 05:56:40;;;;;;;1.58;0.90;;;15.70;72.60;;;;;;5053086;28;20043;-74
2021/05/15 05:59:06;;;;;;;4.15;1.33;;;14.90;75.80;;;;;;5071705;28;20032;-75
2021/05/15 06:01:32;;;;;;;3.70;1.10;;;14.80;75.80;;;;;;5060133;28;20043;-75
2021/05/15 06:03:58;;;;;;;2.15;0.82;;;14.10;77.40;;;;;;5056208;28;20037;-75
2021/05/15 06:06:24;;;;;;;1.85;0.98;;;13.80;79.40;;;;;;5060864;28;20044;-74
2021/05/15 06:08:51;;;;;;;2.33;0.93;;;13.40;81.00;;;;;;5052281;28;20037;-74
2021/05/15 06:11:17;;;;;;;2.50;1.17;;;13.20;82.70;;;;;;5052295;28;20032;-74
2021/05/15 06:13:43;;;;;;;2.95;1.17;;;13.40;81.60;;;;;;5067133;28;20045;-75
2021/05/15 06:16:09;;;;;;;5.18;1.75;;;13.50;82.70;;;;;;5052284;28;20356;-78
2021/05/15 06:18:35;;;;;;;4.78;1.10;;;13.50;81.30;;;;;;5052203;28;20401;-78
2021/05/15 06:21:02;;;;;;;2.55;1.13;;;13.30;83.60;;;;;;5052150;28;20470;-79
2021/05/15 06:23:28;;;;;;;2.08;1.25;;;13.10;83.30;;;;;;5052501;28;20032;-78
2021/05/15 06:25:54;;;;;;;4.65;1.20;;;12.90;84.50;;;;;;5052790;28;20149;-78
2021/05/15 06:28:20;;;;;;;1.98;1.30;;;12.80;85.20;;;;;;5067569;28;20032;-78
2021/05/15 06:30:47;;;;;;;2.97;0.93;;;12.70;86.40;;;;;;5054662;28;20040;-78
2021/05/15 06:33:13;;;;;;;3.95;1.00;;;12.50;87.10;;;;;;5051646;28;20056;-78
2021/05/15 06:35:39;;;;;;;2.35;1.20;;;12.50;87.60;;;;;;5054775;28;20374;-78
2021/05/15 06:38:06;;;;;;;8.35;3.22;;;12.60;88.00;;;;;;5063510;28;20040;-78
2021/05/15 06:40:33;;;;;;;5.13;1.88;;;12.60;87.90;;;;;;5052320;28;20029;-79
2021/05/15 06:42:59;;;;;;;5.05;2.40;;;12.60;89.10;;;;;;5052223;28;20041;-79
2021/05/15 06:45:26;;;;;;;6.60;2.40;;;12.70;88.80;;;;;;5067730;28;20036;-80
2021/05/15 06:47:53;;;;;;;3.13;1.42;;;12.80;88.90;;;;;;5052092;28;20036;-79
2021/05/15 06:50:19;;;;;;;1.88;1.02;;;12.80;88.00;;;;;;5052175;28;20052;-79
2021/05/15 06:52:46;;;;;;;2.25;1.33;;;13.20;87.70;;;;;;5059639;28;20391;-78
2021/05/15 06:55:12;;;;;;;4.70;1.05;;;13.50;86.60;;;;;;5061548;28;20033;-80
2021/05/15 06:57:39;;;;;;;3.30;1.40;;;13.60;86.40;;;;;;5054422;28;20393;-79
2021/05/15 07:00:07;;;;;;;2.45;1.17;;;13.30;85.40;;;;;;5068342;28;20448;-80
2021/05/15 07:02:33;;;;;;;2.05;1.20;;;13.30;85.60;;;;;;5051926;28;20040;-79
2021/05/15 07:05:00;;;;;;;1.98;1.13;;;13.20;85.80;;;;;;5051629;28;20336;-79
2021/05/15 07:07:26;;;;;;;2.15;1.10;;;13.00;87.90;;;;;;5052144;28;20044;-79
2021/05/15 07:09:53;;;;;;;4.50;1.77;;;13.10;89.00;;;;;;5051499;28;20049;-79
2021/05/15 07:12:21;;;;;;;2.17;0.80;;;13.30;87.50;;;;;;5051182;28;20037;-82
2021/05/15 07:14:48;;;;;;;3.80;1.30;;;13.30;88.90;;;;;;5052158;28;20041;-83
2021/05/15 07:17:15;;;;;;;3.80;1.75;;;13.20;89.00;;;;;;5051633;28;20036;-78
2021/05/15 07:19:41;;;;;;;3.08;1.00;;;13.10;87.20;;;;;;5051324;28;20041;-79
2021/05/15 07:22:08;;;;;;;3.65;1.10;;;12.90;89.10;;;;;;5051195;28;20036;-78
2021/05/15 07:24:34;;;;;;;2.85;1.00;;;12.70;90.70;;;;;;5055500;28;20489;-77
2021/05/15 07:27:00;;;;;;;2.45;1.10;;;12.70;91.40;;;;;;5055457;28;20025;-78
2021/05/15 07:29:26;;;;;;;4.15;1.50;;;12.70;92.60;;;;;;5055830;28;20065;-77
2021/05/15 07:31:53;;;;;;;1.70;0.98;;;12.60;95.10;;;;;;5053753;28;20044;-78
2021/05/15 07:34:19;;;;;;;2.35;1.20;;;12.20;99.90;;;;;;5055430;28;20056;-78
2021/05/15 07:36:45;;;;;;;2.83;1.30;;;12.40;99.90;;;;;;5055720;28;20046;-78
2021/05/15 07:39:11;;;;;;;1.38;0.90;;;12.70;99.90;;;;;;5055458;28;20037;-77
2021/05/15 07:41:38;;;;;;;4.43;1.30;;;12.80;99.90;;;;;;5055615;28;20359;-77
2021/05/15 07:44:04;;;;;;;3.75;1.40;;;12.90;99.90;;;;;;5055158;28;20037;-78
2021/05/15 07:46:30;;;;;;;1.40;1.00;;;12.90;99.90;;;;;;5055442;28;20033;-77
2021/05/15 07:48:56;;;;;;;3.85;1.42;;;12.90;99.90;;;;;;5059198;28;20028;-78
2021/05/15 07:51:23;;;;;;;1.90;1.10;;;13.30;99.90;;;;;;5064971;28;20041;-79
2021/05/15 07:53:50;;;;;;;1.42;1.00;;;13.60;99.90;;;;;;5063745;28;20037;-80
2021/05/15 07:56:17;;;;;;;1.45;1.00;;;13.60;99.10;;;;;;5061533;28;20036;-79
2021/05/15 07:58:44;;;;;;;2.28;1.00;;;13.60;98.90;;;;;;5073984;28;20039;-79
2021/05/15 08:01:11;;;;;;;4.25;1.40;;;13.30;99.60;;;;;;5054008;28;20049;-78
2021/05/15 08:03:37;;;;;;;1.88;1.23;;;13.20;99.40;;;;;;5068524;28;20028;-79
2021/05/15 08:06:03;;;;;;;2.10;1.35;;;12.80;99.90;;;;;;5071442;28;20029;-78
2021/05/15 08:08:30;;;;;;;1.60;1.30;;;12.80;99.90;;;;;;5064388;28;20095;-79
2021/05/15 08:10:56;;;;;;;2.83;1.58;;;12.80;99.90;;;;;;5055012;28;20048;-77
2021/05/15 08:13:25;;;;;;;3.20;1.88;;;12.70;99.90;;;;;;5054988;28;20405;-77
2021/05/15 08:15:52;;;;;;;4.88;1.52;;;12.80;99.90;;;;;;5054462;28;20040;-77
2021/05/15 08:18:18;;;;;;;2.60;1.50;;;13.60;99.90;;;;;;5054923;28;20036;-78
2021/05/15 08:20:45;;;;;;;2.65;0.85;;;14.30;99.80;;;;;;5054686;28;20501;-78
2021/05/15 08:23:12;;;;;;;2.33;1.10;;;14.40;98.10;;;;;;5068403;28;20044;-78
2021/05/15 08:25:39;;;;;;;2.35;1.40;;;14.50;97.40;;;;;;5054706;28;20044;-78
2021/05/15 08:28:11;;;;;;;2.03;1.00;;;14.60;97.60;;;;;;5055455;28;20040;-78
2021/05/15 08:30:39;;;;;;;2.75;1.13;;;14.70;94.80;;;;;;5071482;28;20025;-80
2021/05/15 08:33:07;;;;;;;1.48;1.00;;;15.30;95.00;;;;;;5059226;28;20071;-78
2021/05/15 08:35:33;;;;;;;1.70;1.10;;;15.00;90.90;;;;;;5060011;28;20032;-78
2021/05/15 08:38:02;;;;;;;2.53;1.15;;;15.40;92.30;;;;;;5058289;28;20386;-78
2021/05/15 08:40:28;;;;;;;2.58;1.00;;;15.20;91.60;;;;;;5061910;28;20036;-78
2021/05/15 08:42:56;;;;;;;2.80;1.10;;;14.90;92.70;;;;;;5061443;28;20037;-77
2021/05/15 08:45:25;;;;;;;3.50;1.20;;;14.60;91.60;;;;;;5061957;28;20036;-78
2021/05/15 08:47:53;;;;;;;1.95;0.80;;;14.00;92.40;;;;;;5064077;28;20040;-80
2021/05/15 08:50:24;;;;;;;4.55;1.05;;;13.90;92.60;;;;;;5064839;28;20029;-80
2021/05/15 08:52:53;;;;;;;2.75;0.75;;;14.40;93.10;;;;;;5055369;28;20048;-80
2021/05/15 08:55:22;;;;;;;2.17;0.80;;;14.70;91.90;;;;;;5054076;28;20028;-81
2021/05/15 08:57:49;;;;;;;1.58;0.73;;;14.90;90.60;;;;;;5054161;28;20029;-79
2021/05/15 09:00:25;;;;;;;2.45;0.63;;;14.80;90.50;;;;;;5053635;28;20063;-80
2021/05/15 09:02:56;;;;;;;2.30;1.08;;;14.50;90.00;;;;;;5054005;28;20048;-79
2021/05/15 09:05:23;;;;;;;;;;;14.20;90.80;;;;;;5065938;28;20037;-80
2021/05/15 09:07:55;;;;;;;2.35;1.50;;;13.40;92.90;;;;;;5065858;28;19908;-79
2021/05/15 09:10:25;;;;;;;2.75;1.25;;;13.20;99.90;;;;;;5054130;28;20116;-79
2021/05/15 09:12:52;;;;;;;1.77;1.00;;;13.70;99.90;;;;;;5053624;28;20478;-79
2021/05/15 09:15:18;;;;;;;3.35;1.17;;;14.00;99.90;;;;;;5054271;28;20029;-77
2021/05/15 09:17:49;;;;;;;3.35;1.10;;;14.00;96.70;;;;;;5072710;28;20044;-80
2021/05/15 09:20:27;;;;;;;2.10;1.35;;;14.20;98.00;;;;;;5066798;28;20077;-79
2021/05/15 09:22:53;;;;;;;2.90;1.17;;;14.30;95.60;;;;;;5060846;28;20047;-78
2021/05/15 09:25:20;;;;;;;1.38;0.70;;;14.50;95.60;;;;;;5068143;28;20032;-78
2021/05/15 09:27:47;;;;;;;1.77;0.85;;;15.00;93.30;;;;;;5053354;28;20037;-78
2021/05/15 09:30:14;;;;;;;2.35;0.98;;;15.10;93.00;;;;;;5059028;28;20044;-78
2021/05/15 09:32:40;;;;;;;1.70;0.88;;;15.20;92.80;;;;;;5059901;28;20057;-78
2021/05/15 09:35:08;;;;;;;1.45;0.80;;;15.30;91.70;;;;;;5053476;28;20033;-78
2021/05/15 09:37:35;;;;;;;1.65;0.80;;;15.20;91.20;;;;;;5053611;28;20037;-78
2021/05/15 09:40:14;;;;;;;2.10;0.93;;;15.00;90.80;;;;;;5052594;28;20398;-77
2021/05/15 09:42:44;;;;;;;1.60;1.00;;;14.60;92.40;;;;;;5053957;28;20052;-78
2021/05/15 09:45:25;;;;;;;1.20;0.80;;;14.30;91.50;;;;;;5052887;28;20040;-77
2021/05/15 09:47:51;;;;;;;;;;;14.00;91.90;;;;;;5053708;28;20036;-80
2021/05/15 09:50:18;;;;;;;3.63;1.00;;;14.00;92.40;;;;;;5066589;28;20369;-79
2021/05/15 09:52:45;;;;;;;3.65;0.80;;;15.00;90.70;;;;;;5060093;28;20409;-80
2021/05/15 09:55:12;;;;;;;3.58;1.40;;;15.40;90.50;;;;;;5052685;28;20383;-78
2021/05/15 09:57:38;;;;;;;2.95;0.90;;;15.40;88.80;;;;;;5053386;28;20037;-78
2021/05/15 10:00:13;;;;;;;3.35;0.85;;;15.30;85.70;;;;;;5052500;28;20044;-78
2021/05/15 10:02:40;;;;;;;1.60;0.90;;;15.20;86.80;;;;;;5051339;28;20501;-79
2021/05/15 10:05:10;;;;;;;2.17;1.10;;;14.90;87.00;;;;;;5062243;28;20041;-78
2021/05/15 10:07:37;;;;;;;;;;;14.60;86.90;;;;;;5062567;28;20048;-78
2021/05/15 10:10:10;;;;;;;2.33;0.80;;;13.60;88.10;;;;;;5051808;28;19916;-76
2021/05/15 10:12:37;;;;;;;3.17;0.98;;;13.20;91.60;;;;;;5052427;28;20040;-76
2021/05/15 10:15:05;;;;;;;3.03;0.90;;;13.00;91.90;;;;;;5052520;28;20036;-77
2021/05/15 10:17:35;;;;;;;2.60;0.85;;;12.60;93.30;;;;;;5052549;28;20025;-77
2021/05/15 10:20:09;;;;;;;2.20;1.27;;;12.30;94.40;;;;;;5051866;28;20036;-77
2021/05/15 10:22:40;;;;;;;3.88;1.35;;;12.20;96.40;;;;;;5059407;28;20047;-77
2021/05/15 10:25:11;;;;;;;2.03;0.73;;;12.00;97.90;;;;;;5063302;28;20033;-77
2021/05/15 10:27:38;;;;;;;2.08;1.02;;;12.00;98.50;;;;;;5052521;28;20036;-77
2021/05/15 10:30:21;;;;;;;3.13;1.20;;;11.90;99.90;;;;;;5054590;28;20048;-77
2021/05/15 10:32:58;;;;;;;2.78;1.20;;;11.90;99.90;;;;;;5062655;28;20045;-76
2021/05/15 10:35:43;;;;;;;4.80;2.28;;;11.70;99.90;;;;;;5052469;28;20033;-77
2021/05/15 10:38:13;;;;;;;5.72;2.30;;;11.40;99.90;;;;;;5051898;28;20451;-76
2021/05/15 10:40:53;;;;;;;3.20;1.45;;;11.20;99.90;;;;;;5052382;28;20049;-76
2021/05/15 10:43:36;;;;;;;4.10;1.70;;;10.90;99.90;;;;;;5069832;28;20466;-76
2021/05/15 10:46:31;;;;;;;2.38;1.05;;;11.20;99.90;;;;;;5052081;28;20036;-76
2021/05/15 10:48:59;;;;;;;3.72;1.20;;;11.50;99.90;;;;;;5069195;28;20350;-76
2021/05/15 10:51:41;;;;;;;2.88;1.10;;;12.10;99.90;;;;;;5072607;28;20052;-76
2021/05/15 10:54:10;;;;;;;2.50;1.27;;;12.50;99.90;;;;;;5056046;28;20033;-76
2021/05/15 10:56:36;;;;;;;4.20;1.25;;;12.70;99.90;;;;;;5062666;28;20474;-76
2021/05/15 10:59:08;;;;;;;3.13;1.40;;;13.00;99.90;;;;;;5060640;28;20048;-76
2021/05/15 11:01:52;;;;;;;4.22;1.42;;;13.40;99.90;;;;;;5052609;28;20041;-76
2021/05/15 11:04:25;;;;;;;2.72;1.10;;;13.60;99.90;;;;;;5051860;28;20386;-76
2021/05/15 11:07:10;;;;;;;3.65;0.88;;;13.90;99.90;;;;;;5059434;28;20024;-76
2021/05/15 11:09:59;;;;;;;3.58;0.70;;;14.30;99.90;;;;;;5052340;28;20029;-76
2021/05/15 11:12:30;;;;;;;4.45;0.90;;;14.70;99.90;;;;;;5051774;28;20041;-76
2021/05/15 11:15:01;;;;;;;1.90;0.60;;;15.00;99.40;;;;;;5051914;28;20045;-76
2021/05/15 11:17:29;;;;;;;3.40;0.85;;;14.70;97.90;;;;;;5051938;28;20029;-76
2021/05/15 11:19:58;;;;;;;3.28;1.00;;;14.90;97.10;;;;;;5051677;28;20055;-76
2021/05/15 11:22:41;;;;;;;7.80;1.48;;;15.20;96.40;;;;;;5055598;28;20036;-76
2021/05/15 11:25:14;;;;;;;2.83;0.82;;;15.50;92.10;;;;;;5060459;28;20033;-77
2021/05/15 11:27:56;;;;;;;3.22;0.90;;;15.50;92.40;;;;;;5051770;28;20115;-77
2021/05/15 11:30:26;;;;;;;3.10;1.23;;;15.50;91.00;;;;;;5051342;28;20045;-76
2021/05/15 11:33:01;;;;;;;3.47;0.88;;;14.90;90.10;;;;;;5066487;28;20041;-77
2021/05/15 11:35:29;;;;;;;3.47;1.48;;;14.80;92.10;;;;;;5071248;28;20382;-77
2021/05/15 11:38:13;;;;;;;2.38;1.40;;;14.80;93.80;;;;;;5051970;28;20040;-78
2021/05/15 11:40:50;;;;;;;3.15;1.25;;;14.70;90.40;;;;;;5051747;28;20155;-78
2021/05/15 11:43:28;;;;;;;2.10;1.27;;;14.20;90.60;;;;;;5058655;28;20478;-77
2021/05/15 11:45:56;;;;;;;2.90;1.00;;;14.40;91.10;;;;;;5051912;28;20032;-77
2021/05/15 11:48:28;;;;;;;4.88;1.67;;;14.70;91.00;;;;;;5065772;28;20036;-78
2021/05/15 11:51:09;;;;;;;4.43;1.50;;;15.00;91.30;;;;;;5053886;28;20024;-78
2021/05/15 11:53:49;;;;;;;3.42;1.83;;;14.90;88.90;;;;;;5067741;28;20029;-78
2021/05/15 11:56:26;;;;;;;3.72;1.38;;;15.20;89.30;;;;;;5050933;28;20264;-78
2021/05/15 11:58:55;;;;;;;3.40;1.05;;;15.40;90.20;;;;;;5063567;28;20037;-78
2021/05/15 12:01:34;;;;;;;3.03;1.40;;;15.60;90.40;;;;;;5054297;28;20029;-77
2021/05/15 12:04:16;;;;;;;2.30;0.70;;;15.30;90.40;;;;;;5051177;28;20029;-78
2021/05/15 12:06:45;;;;;;;5.65;1.60;;;14.50;90.40;;;;;;5051744;28;20033;-76
2021/05/15 12:09:13;;;;;;;6.13;1.40;;;12.50;99.90;;;;;;5052144;28;20107;-77
2021/05/15 12:11:41;;;;;;;6.55;1.10;;;10.80;99.90;;;;;;5054745;28;20025;-77
2021/05/15 12:14:07;;;;;;;1.30;0.95;;;10.00;99.90;;;;;;5054668;28;20044;-75
2021/05/15 12:16:35;;;;;;;4.07;2.63;;;9.80;99.90;;;;;;5055248;28;20044;-78
2021/05/15 12:19:03;;;;;;;2.47;0.88;;;10.00;99.90;;;;;;5054565;28;20052;-78
2021/05/15 12:21:30;;;;;;;3.25;0.88;;;10.30;99.90;;;;;;5055127;28;20037;-78
2021/05/15 12:24:07;;;;;;;4.95;2.35;;;10.70;99.90;;;;;;5053986;28;20045;-79
2021/05/15 12:26:34;;;;;;;3.55;1.10;;;11.00;99.90;;;;;;5054875;28;20033;-79
2021/05/15 12:29:03;;;;;;;5.20;1.05;;;11.40;99.90;;;;;;5054800;28;20029;-79
2021/05/15 12:31:34;;;;;;;2.03;0.90;;;11.80;99.90;;;;;;5068261;28;20132;-79
2021/05/15 12:34:05;;;;;;;1.35;0.80;;;12.20;99.90;;;;;;5053979;28;20049;-79
2021/05/15 12:36:33;;;;;;;2.13;0.82;;;12.00;99.90;;;;;;5054846;28;20056;-79
2021/05/15 12:39:01;;;;;;;3.05;1.13;;;12.40;99.90;;;;;;5053543;28;20429;-79
2021/05/15 12:41:30;;;;;;;2.85;0.80;;;12.60;99.90;;;;;;5054492;28;20052;-79
2021/05/15 12:44:18;;;;;;;2.00;0.60;;;13.00;99.90;;;;;;5062696;28;20033;-80
2021/05/15 12:46:47;;;;;;;2.20;0.70;;;13.00;99.90;;;;;;5057817;28;20037;-80
2021/05/15 12:49:18;;;;;;;1.88;0.82;;;13.40;99.90;;;;;;5060001;28;20153;-79
2021/05/15 12:51:47;;;;;;;1.90;0.80;;;13.90;99.90;;;;;;5069452;28;20029;-79
2021/05/15 12:54:28;;;;;;;2.72;0.98;;;13.90;99.90;;;;;;5054169;28;20044;-79
2021/05/15 12:57:03;;;;;;;2.63;0.60;;;14.00;99.90;;;;;;5067122;28;20051;-79